Thunder radar more information blitzortung!


Löydät sääaseman tiedot myös:

European Weather Network

Finland Weather Exchange

Weather Underground

AWEKAS



Weather Underground säähistoriasivu

Päivittäin yhteenveto Tammikuu 2, 2017 Yksiköt:  Englantilaiset    Metriset   Molemmat
« Edellinen Päivä
Seuraava Päivä »
Päivittäin Viikoittain Kuukausittain Vuosittain Mukautettu
  Korkea: Matala: Keskiarvo:
Lämpötila: TemperatureC °F -6.0 °F -3.8 °F
Kastepiste: DewpointC °F -6.9 °F -4.5 °F
Kosteus: Humidity % 93 % 94 %
Tuulen nopeus: WindSpeedKMH mph 0.0 mph 0 mph
Tuulenpuuska: WindSpeedGustKMH mph - -
Tuuli:- - North
Ilmanpaine: PressurehPa in 1000.2 in -
Sade: 0.0 in    
Historical Graphs
 
 
Taulukkotiedot Tammikuu 2, 2017
Aika Lämpötila Kastepiste Ilmanpaine Tuuli Tuulen nopeus Tuulenpuuska Kosteus Sademäärä (tunneittain)
TemperatureC °F DewpointC °F PressurehPa in Calm     Humidity % HourlyPrecipMM in
00:00 -4.4 °F -5.1 °F 1000.6 in Calm     95 % 0.0 in
00:15 -4.4 °F -5.1 °F 1000.6 in Calm     95 % 0.0 in
00:30 -4.3 °F -5.0 °F 1000.6 in Calm     95 % 0.0 in
00:45 -4.1 °F -4.6 °F 1000.6 in Calm     96 % 0.0 in
01:00 -3.8 °F -4.4 °F 1000.6 in Calm     96 % 0.0 in
01:15 -3.7 °F -4.2 °F 1000.6 in Calm     96 % 0.0 in
01:30 -3.7 °F -4.3 °F 1000.6 in Calm     96 % 0.0 in
01:45 -3.8 °F -4.3 °F 1000.6 in Calm     96 % 0.0 in
02:00 -3.9 °F -4.6 °F 1000.6 in Calm     95 % 0.0 in
02:15 -4.1 °F -4.6 °F 1000.2 in Calm     96 % 0.0 in
02:30 -4.1 °F -4.6 °F 1000.6 in Calm     96 % 0.0 in
02:45 -4.1 °F -4.7 °F 1000.6 in Calm     96 % 0.0 in
03:00 -4.1 °F -4.6 °F 1000.6 in Calm     96 % 0.0 in
03:15 -4.0 °F -4.5 °F 1000.6 in Calm     96 % 0.0 in
03:30 -3.9 °F -4.5 °F 1000.6 in Calm     96 % 0.0 in
03:45 -4.0 °F -4.5 °F 1000.6 in Calm     96 % 0.0 in
04:00 -4.0 °F -4.5 °F 1000.6 in Calm     96 % 0.0 in
04:15 -3.9 °F -4.5 °F 1000.6 in Calm     96 % 0.0 in
04:30 -3.9 °F -4.4 °F 1000.6 in Calm     96 % 0.0 in
04:45 -3.9 °F -4.6 °F 1000.6 in Calm     95 % 0.0 in
05:00 -3.9 °F -4.6 °F 1000.6 in Calm     95 % 0.0 in
05:15 -3.9 °F -4.6 °F 1000.6 in Calm     95 % 0.0 in
05:30 -3.8 °F -4.4 °F 1000.6 in Calm     96 % 0.0 in
05:45 -3.8 °F -4.3 °F 1000.6 in Calm     96 % 0.0 in
06:00 -3.8 °F -4.3 °F 1000.6 in Calm     96 % 0.0 in
06:15 -3.7 °F -4.3 °F 1000.6 in Calm     96 % 0.0 in
06:30 -3.7 °F -4.2 °F 1000.2 in Calm     96 % 0.0 in
06:45 -3.7 °F -4.4 °F 1000.6 in Calm     95 % 0.0 in
07:00 -3.6 °F -4.3 °F 1000.2 in Calm     95 % 0.0 in
07:15 -3.6 °F -4.1 °F 1000.2 in Calm     96 % 0.0 in
07:30 -3.5 °F -4.2 °F 1000.2 in Calm     95 % 0.0 in
07:45 -3.5 °F -4.0 °F 1000.2 in Calm     96 % 0.0 in
08:00 -3.5 °F -4.2 °F 1000.2 in Calm     95 % 0.0 in
08:15 -3.5 °F -4.2 °F 1000.2 in Calm     95 % 0.0 in
08:30 -3.6 °F -4.2 °F 1000.2 in Calm     95 % 0.0 in
08:45 -3.6 °F -4.2 °F 1000.2 in Calm     95 % 0.0 in
09:00 -3.6 °F -4.2 °F 1000.2 in Calm     95 % 0.0 in
09:15 -3.6 °F -4.2 °F 1000.6 in Calm     95 % 0.0 in
09:30 -3.5 °F -4.0 °F 1000.6 in Calm     96 % 0.0 in
09:45 -3.6 °F -4.2 °F 1000.6 in Calm     95 % 0.0 in
10:00 -3.6 °F -4.3 °F 1000.6 in Calm     95 % 0.0 in
10:15 -3.6 °F -4.1 °F 1000.6 in Calm     96 % 0.0 in
10:30 -3.5 °F -4.0 °F 1000.6 in Calm     96 % 0.0 in
10:45 -3.4 °F -4.0 °F 1000.6 in Calm     96 % 0.0 in
11:00 -3.3 °F -3.9 °F 1000.9 in Calm     96 % 0.0 in
11:15 -3.3 °F -3.9 °F 1000.9 in Calm     96 % 0.0 in
11:30 -3.3 °F -3.8 °F 1000.9 in Calm     96 % 0.0 in
11:45 -3.3 °F -3.8 °F 1000.9 in Calm     96 % 0.0 in
12:00 -3.2 °F -3.8 °F 1000.9 in Calm     96 % 0.0 in
12:15 -3.2 °F -3.7 °F 1000.6 in Calm     96 % 0.0 in
12:30 -3.1 °F -3.7 °F 1000.9 in Calm     96 % 0.0 in
12:45 -3.1 °F -3.6 °F 1000.9 in Calm     96 % 0.0 in
13:00 -3.1 °F -3.6 °F 1000.9 in Calm     96 % 0.0 in
13:15 -3.0 °F -3.5 °F 1000.9 in Calm     96 % 0.0 in
13:30 -3.0 °F -3.5 °F 1000.9 in Calm     96 % 0.0 in
13:45 -3.0 °F -3.5 °F 1000.9 in Calm     96 % 0.0 in
14:00 -3.0 °F -3.5 °F 1000.9 in Calm     96 % 0.0 in
14:15 -2.9 °F -3.5 °F 1000.9 in Calm     96 % 0.0 in
14:30 -2.9 °F -3.4 °F 1000.9 in Calm     96 % 0.0 in
14:45 -2.8 °F -3.4 °F 1000.9 in Calm     96 % 0.0 in
15:00 -2.8 °F -3.4 °F 1000.9 in Calm     96 % 0.0 in
15:15 -2.8 °F -3.4 °F 1000.9 in Calm     96 % 0.0 in
15:30 -2.8 °F -3.4 °F 1000.9 in Calm     96 % 0.0 in
15:45 -2.9 °F -3.6 °F 1000.9 in Calm     95 % 0.0 in
16:00 -3.0 °F -3.7 °F 1000.9 in Calm     95 % 0.0 in
16:15 -3.1 °F -3.8 °F 1000.9 in Calm     95 % 0.0 in
16:30 -3.2 °F -3.9 °F 1000.9 in Calm     95 % 0.0 in
16:45 -3.2 °F -3.9 °F 1000.9 in Calm     95 % 0.0 in
17:00 -3.3 °F -4.0 °F 1000.9 in Calm     95 % 0.0 in
17:15 -3.3 °F -4.0 °F 1000.9 in Calm     95 % 0.0 in
17:30 -3.4 °F -4.1 °F 1000.9 in Calm     95 % 0.0 in
17:45 -3.4 °F -4.1 °F 1001.2 in Calm     95 % 0.0 in
18:00 -3.4 °F -4.1 °F 1000.9 in Calm     95 % 0.0 in
18:15 -3.4 °F -4.1 °F 1001.2 in Calm     95 % 0.0 in
18:30 -3.6 °F -4.2 °F 1001.2 in Calm     95 % 0.0 in
18:45 -3.7 °F -4.5 °F 1001.2 in Calm     94 % 0.0 in
19:00 -4.1 °F -4.9 °F 1001.2 in Calm     94 % 0.0 in
19:15 -4.3 °F -5.1 °F 1001.6 in Calm     94 % 0.0 in
19:30 -4.3 °F -5.2 °F 1001.6 in Calm     94 % 0.0 in
19:45 -4.3 °F -5.2 °F 1001.6 in Calm     94 % 0.0 in
20:00 -4.6 °F -5.4 °F 1001.6 in Calm     94 % 0.0 in
20:15 -4.7 °F -5.5 °F 1001.6 in Calm     94 % 0.0 in
20:30 -4.9 °F -5.8 °F 1001.6 in Calm     94 % 0.0 in
20:45 -5.1 °F -5.9 °F 1001.6 in Calm     94 % 0.0 in
21:00 -5.1 °F -5.9 °F 1001.6 in Calm     94 % 0.0 in
21:15 -5.2 °F -6.0 °F 1001.9 in Calm     94 % 0.0 in
21:30 -5.3 °F -6.1 °F 1001.9 in Calm     94 % 0.0 in
21:45 -5.3 °F -6.1 °F 1001.9 in Calm     94 % 0.0 in
22:00 -5.4 °F -6.4 °F 1001.9 in Calm     93 % 0.0 in
22:15 -5.5 °F -6.5 °F 1001.9 in Calm     93 % 0.0 in
22:30 -5.6 °F -6.5 °F 1001.9 in Calm     93 % 0.0 in
22:45 -5.7 °F -6.6 °F 1002.3 in Calm     93 % 0.0 in
23:00 -5.8 °F -6.7 °F 1002.3 in Calm     93 % 0.0 in
23:15 -5.8 °F -6.8 °F 1002.3 in Calm     93 % 0.0 in
23:30 -5.9 °F -6.9 °F 1002.6 in Calm     93 % 0.0 in
23:45 -6.0 °F -6.9 °F 1002.3 in Calm     93 % 0.0 in
Esan sääasema
Terveisin Weather Underground - 3 mb

Alkuperäinen skripti  Jim McMurry - jmcmurry@mwt.net Sovitettu myös templatelle  Wim van der Kuil - Leuven-Template.eu

Laitteet joita käytämme:

Sääasema
Davis VP2

Sääasemaohjelma
Cumulus

Sääaseman tietokone
Asus EeePC

Palveluntarjoaja
Suncomet

Davis VP2

Cumulus

Asus EeePC

Suncomet